Terminal Aerodrome Forecast
Issued by NWS Jackson, KY

Home | Current Version | Previous Version | Text Only | Print | Product List | Glossary On
Versions: 1 2 3 4 5 6 7 8 9 10 11 12 13 14 15 16 17 18 19
853
FTUS43 KJKL 240536
TAFLOZ
TAF
KLOZ 240536Z 2406/2506 30012G18KT 5SM -RA BR OVC005
     FM240700 30009KT 5SM -DZ BR OVC004
     FM241800 26006KT P6SM OVC010
     FM242200 20005KT P6SM BKN030
     FM242300 18005KT P6SM SCT040=

USA.gov is the U.S. government's official web portal to all federal, state and local government web resources and services.